Terminal Aerodrome Forecast
Issued by NWS

Home | Current Version | Previous Version | Text Only | Print | Product List | Glossary On
Versions: 1 2 3 4 5 6 7 8 9 10 11 12 13
886
FTUS45 KRIW 101721
TAFRKS
TAF
KRKS 101721Z 1018/1118 22010KT P6SM SCT020 OVC060
     FM102000 24020G30KT P6SM SCT024 OVC035
     FM110000 25016G30KT 2SM -SN BKN016
     FM110800 25015G25KT 4SM -SN BKN030
     FM111200 26012G22KT P6SM VCSH SCT080=

USA.gov is the U.S. government's official web portal to all federal, state and local government web resources and services.